Flitwick, United Kingdom
Current Conditions -  °F | °C
As of 5:20 AM on Wednesday 26 Nov 2014 (Local Time) from EGGW Reporting Station
Moderate Fog Moderate Fog  
Wind Chill: 43°   Ceiling: 200
Heat Index: 43°   Visibility: 0.21mi
Dew Point: 43°   Wind: 3mph
Humidity: 100%   Direction: 40°NE
Pressure: 29.88"   Gusts: NA
Location:  52°N, 0.49°W
Report Text: EGGW 260520Z 04003KT 0350 R08/1000 FG OVC002 06/06 Q1012
Loading
Personal Weather Stations






























Interactive Weather Map New forecast layout! Learn more

10-Day Weather Forecast

Advertisements
Track Severe Weather on mobile